sensor_id;sensor_type;location;lat;lon;timestamp;pressure;altitude;pressure_sealevel;temperature
34310;BMP280;61664;48.112;11.662;2023-02-26T00:01:37;94579.97;;;4.00
34310;BMP280;61664;48.112;11.662;2023-02-26T00:04:06;94583.34;;;4.00
34310;BMP280;61664;48.112;11.662;2023-02-26T00:06:36;94599.97;;;4.01
34310;BMP280;61664;48.112;11.662;2023-02-26T00:09:04;94599.97;;;4.01
34310;BMP280;61664;48.112;11.662;2023-02-26T00:11:32;94579.94;;;3.91
34310;BMP280;61664;48.112;11.662;2023-02-26T00:13:59;94582.94;;;4.02
34310;BMP280;61664;48.112;11.662;2023-02-26T00:16:34;94582.59;;;4.00
34310;BMP280;61664;48.112;11.662;2023-02-26T00:19:05;94597.81;;;4.08
34310;BMP280;61664;48.112;11.662;2023-02-26T00:21:34;94597.38;;;4.10
34310;BMP280;61664;48.112;11.662;2023-02-26T00:24:03;94605.63;;;4.12
34310;BMP280;61664;48.112;11.662;2023-02-26T00:26:34;94608.28;;;4.12
34310;BMP280;61664;48.112;11.662;2023-02-26T00:29:02;94600.97;;;4.16
34310;BMP280;61664;48.112;11.662;2023-02-26T00:31:30;94589.13;;;4.08
34310;BMP280;61664;48.112;11.662;2023-02-26T00:33:58;94611.06;;;4.18
34310;BMP280;61664;48.112;11.662;2023-02-26T00:36:42;94606.81;;;4.11
34310;BMP280;61664;48.112;11.662;2023-02-26T00:40:20;94613.91;;;4.01
34310;BMP280;61664;48.112;11.662;2023-02-26T00:42:49;94601.69;;;3.95
34310;BMP280;61664;48.112;11.662;2023-02-26T00:45:16;94602.41;;;3.95
34310;BMP280;61664;48.112;11.662;2023-02-26T00:48:12;94597.88;;;3.96
34310;BMP280;61664;48.112;11.662;2023-02-26T00:50:58;94597.25;;;3.92
34310;BMP280;61664;48.112;11.662;2023-02-26T00:56:44;94603.50;;;3.85
34310;BMP280;61664;48.112;11.662;2023-02-26T00:59:11;94613.72;;;3.96
34310;BMP280;61664;48.112;11.662;2023-02-26T01:01:38;94609.31;;;3.93
34310;BMP280;61664;48.112;11.662;2023-02-26T01:04:06;94624.88;;;4.00
34310;BMP280;61664;48.112;11.662;2023-02-26T01:06:46;94616.22;;;3.99
34310;BMP280;61664;48.112;11.662;2023-02-26T01:09:32;94619.00;;;3.96
34310;BMP280;61664;48.112;11.662;2023-02-26T01:12:05;94625.47;;;3.95
34310;BMP280;61664;48.112;11.662;2023-02-26T01:14:34;94616.50;;;3.92
34310;BMP280;61664;48.112;11.662;2023-02-26T01:17:18;94615.00;;;3.91
34310;BMP280;61664;48.112;11.662;2023-02-26T01:19:58;94620.59;;;3.93
34310;BMP280;61664;48.112;11.662;2023-02-26T01:25:07;94612.38;;;3.91
34310;BMP280;61664;48.112;11.662;2023-02-26T01:27:35;94617.53;;;3.95
34310;BMP280;61664;48.112;11.662;2023-02-26T01:30:04;94614.28;;;3.91
34310;BMP280;61664;48.112;11.662;2023-02-26T01:33:13;94618.59;;;3.84
34310;BMP280;61664;48.112;11.662;2023-02-26T01:41:27;94620.56;;;3.71
34310;BMP280;61664;48.112;11.662;2023-02-26T01:49:29;94635.03;;;3.67
34310;BMP280;61664;48.112;11.662;2023-02-26T01:52:04;94627.53;;;3.65
34310;BMP280;61664;48.112;11.662;2023-02-26T01:54:37;94632.38;;;3.67
34310;BMP280;61664;48.112;11.662;2023-02-26T01:57:10;94623.63;;;3.57
34310;BMP280;61664;48.112;11.662;2023-02-26T01:59:45;94642.66;;;3.65
34310;BMP280;61664;48.112;11.662;2023-02-26T02:02:19;94635.56;;;3.62
34310;BMP280;61664;48.112;11.662;2023-02-26T02:04:49;94639.56;;;3.66
34310;BMP280;61664;48.112;11.662;2023-02-26T02:07:17;94644.00;;;3.69
34310;BMP280;61664;48.112;11.662;2023-02-26T02:09:45;94640.31;;;3.67
34310;BMP280;61664;48.112;11.662;2023-02-26T02:12:43;94649.94;;;3.73
34310;BMP280;61664;48.112;11.662;2023-02-26T02:15:30;94648.53;;;3.69
34310;BMP280;61664;48.112;11.662;2023-02-26T02:18:34;94646.25;;;3.71
34310;BMP280;61664;48.112;11.662;2023-02-26T02:21:43;94650.75;;;3.70
34310;BMP280;61664;48.112;11.662;2023-02-26T02:27:34;94660.91;;;3.59
34310;BMP280;61664;48.112;11.662;2023-02-26T02:31:07;94665.38;;;3.62
34310;BMP280;61664;48.112;11.662;2023-02-26T02:34:11;94664.50;;;3.65
34310;BMP280;61664;48.112;11.662;2023-02-26T02:36:48;94651.97;;;3.44
34310;BMP280;61664;48.112;11.662;2023-02-26T02:39:32;94671.06;;;3.61
34310;BMP280;61664;48.112;11.662;2023-02-26T02:42:07;94667.03;;;3.56
34310;BMP280;61664;48.112;11.662;2023-02-26T02:44:42;94664.19;;;3.50
34310;BMP280;61664;48.112;11.662;2023-02-26T02:47:12;94665.69;;;3.51
34310;BMP280;61664;48.112;11.662;2023-02-26T02:50:06;94683.31;;;3.54
34310;BMP280;61664;48.112;11.662;2023-02-26T02:53:03;94681.41;;;3.55
34310;BMP280;61664;48.112;11.662;2023-02-26T02:55:40;94686.56;;;3.59
34310;BMP280;61664;48.112;11.662;2023-02-26T02:58:17;94674.00;;;3.50
34310;BMP280;61664;48.112;11.662;2023-02-26T03:00:53;94678.22;;;3.60
34310;BMP280;61664;48.112;11.662;2023-02-26T03:06:22;94676.00;;;3.59
34310;BMP280;61664;48.112;11.662;2023-02-26T03:08:51;94678.22;;;3.60
34310;BMP280;61664;48.112;11.662;2023-02-26T03:11:19;94693.16;;;3.67
34310;BMP280;61664;48.112;11.662;2023-02-26T03:13:48;94687.00;;;3.57
34310;BMP280;61664;48.112;11.662;2023-02-26T03:19:41;94690.81;;;3.56
34310;BMP280;61664;48.112;11.662;2023-02-26T03:25:17;94695.81;;;3.41
34310;BMP280;61664;48.112;11.662;2023-02-26T03:28:00;94700.56;;;3.46
34310;BMP280;61664;48.112;11.662;2023-02-26T03:30:42;94689.78;;;3.41
34310;BMP280;61664;48.112;11.662;2023-02-26T03:33:55;94707.59;;;3.49
34310;BMP280;61664;48.112;11.662;2023-02-26T03:36:38;94715.44;;;3.53
34310;BMP280;61664;48.112;11.662;2023-02-26T03:39:18;94714.81;;;3.49
34310;BMP280;61664;48.112;11.662;2023-02-26T03:41:56;94712.69;;;3.44
34310;BMP280;61664;48.112;11.662;2023-02-26T03:44:32;94717.97;;;3.44
34310;BMP280;61664;48.112;11.662;2023-02-26T03:47:07;94714.28;;;3.41
34310;BMP280;61664;48.112;11.662;2023-02-26T03:49:43;94721.53;;;3.50
34310;BMP280;61664;48.112;11.662;2023-02-26T03:52:12;94720.38;;;3.38
34310;BMP280;61664;48.112;11.662;2023-02-26T03:55:10;94730.75;;;3.45
34310;BMP280;61664;48.112;11.662;2023-02-26T03:57:38;94734.66;;;3.41
34310;BMP280;61664;48.112;11.662;2023-02-26T04:00:07;94737.63;;;3.43
34310;BMP280;61664;48.112;11.662;2023-02-26T04:05:35;94717.13;;;3.21
34310;BMP280;61664;48.112;11.662;2023-02-26T04:08:03;94747.09;;;3.28
34310;BMP280;61664;48.112;11.662;2023-02-26T04:10:55;94743.53;;;3.21
34310;BMP280;61664;48.112;11.662;2023-02-26T04:13:23;94733.03;;;3.18
34310;BMP280;61664;48.112;11.662;2023-02-26T04:15:51;94733.03;;;3.18
34310;BMP280;61664;48.112;11.662;2023-02-26T04:18:18;94725.22;;;3.14
34310;BMP280;61664;48.112;11.662;2023-02-26T04:20:44;94733.13;;;3.14
34310;BMP280;61664;48.112;11.662;2023-02-26T04:23:11;94731.97;;;3.15
34310;BMP280;61664;48.112;11.662;2023-02-26T04:25:38;94736.41;;;3.18
34310;BMP280;61664;48.112;11.662;2023-02-26T04:28:05;94741.06;;;3.14
34310;BMP280;61664;48.112;11.662;2023-02-26T04:30:32;94746.03;;;3.12
34310;BMP280;61664;48.112;11.662;2023-02-26T04:32:59;94753.38;;;3.05
34310;BMP280;61664;48.112;11.662;2023-02-26T04:35:26;94748.16;;;2.88
34310;BMP280;61664;48.112;11.662;2023-02-26T04:37:53;94751.13;;;2.90
34310;BMP280;61664;48.112;11.662;2023-02-26T04:40:20;94717.19;;;2.63
34310;BMP280;61664;48.112;11.662;2023-02-26T04:42:49;94765.41;;;2.93
34310;BMP280;61664;48.112;11.662;2023-02-26T04:45:16;94758.50;;;2.95
34310;BMP280;61664;48.112;11.662;2023-02-26T04:47:43;94746.34;;;2.85
34310;BMP280;61664;48.112;11.662;2023-02-26T04:50:10;94760.59;;;2.88
34310;BMP280;61664;48.112;11.662;2023-02-26T04:52:37;94761.94;;;2.80
34310;BMP280;61664;48.112;11.662;2023-02-26T04:55:05;94754.84;;;2.64
34310;BMP280;61664;48.112;11.662;2023-02-26T04:57:33;94764.72;;;2.60
34310;BMP280;61664;48.112;11.662;2023-02-26T05:00:00;94776.34;;;2.62
34310;BMP280;61664;48.112;11.662;2023-02-26T05:02:27;94766.28;;;2.57
34310;BMP280;61664;48.112;11.662;2023-02-26T05:04:54;94766.38;;;2.54
34310;BMP280;61664;48.112;11.662;2023-02-26T05:07:20;94779.16;;;2.55
34310;BMP280;61664;48.112;11.662;2023-02-26T05:09:47;94775.19;;;2.47
34310;BMP280;61664;48.112;11.662;2023-02-26T05:12:14;94771.16;;;2.43
34310;BMP280;61664;48.112;11.662;2023-02-26T05:14:41;94774.53;;;2.43
34310;BMP280;61664;48.112;11.662;2023-02-26T05:17:08;94777.19;;;2.43
34310;BMP280;61664;48.112;11.662;2023-02-26T05:19:35;94783.59;;;2.42
34310;BMP280;61664;48.112;11.662;2023-02-26T05:22:02;94792.00;;;2.37
34310;BMP280;61664;48.112;11.662;2023-02-26T05:24:29;94799.06;;;2.40
34310;BMP280;61664;48.112;11.662;2023-02-26T05:26:56;94799.84;;;2.41
34310;BMP280;61664;48.112;11.662;2023-02-26T05:29:23;94779.59;;;2.21
34310;BMP280;61664;48.112;11.662;2023-02-26T05:31:50;94788.56;;;2.24
34310;BMP280;61664;48.112;11.662;2023-02-26T05:34:17;94801.56;;;2.31
34310;BMP280;61664;48.112;11.662;2023-02-26T05:36:44;94786.41;;;2.19
34310;BMP280;61664;48.112;11.662;2023-02-26T05:39:11;94798.69;;;2.25
34310;BMP280;61664;48.112;11.662;2023-02-26T05:41:38;94793.91;;;2.20
34310;BMP280;61664;48.112;11.662;2023-02-26T05:44:05;94797.13;;;2.12
34310;BMP280;61664;48.112;11.662;2023-02-26T05:46:33;94797.78;;;2.16
34310;BMP280;61664;48.112;11.662;2023-02-26T05:49:00;94790.19;;;2.01
34310;BMP280;61664;48.112;11.662;2023-02-26T05:51:27;94798.75;;;2.05
34310;BMP280;61664;48.112;11.662;2023-02-26T05:53:54;94794.03;;;1.97
34310;BMP280;61664;48.112;11.662;2023-02-26T05:56:21;94791.91;;;1.92
34310;BMP280;61664;48.112;11.662;2023-02-26T05:58:49;94798.69;;;1.89
34310;BMP280;61664;48.112;11.662;2023-02-26T06:01:16;94807.75;;;1.88
34310;BMP280;61664;48.112;11.662;2023-02-26T06:03:43;94819.03;;;1.89
34310;BMP280;61664;48.112;11.662;2023-02-26T06:06:13;94832.16;;;1.92
34310;BMP280;61664;48.112;11.662;2023-02-26T06:08:44;94840.78;;;1.93
34310;BMP280;61664;48.112;11.662;2023-02-26T06:11:12;94852.06;;;1.93
34310;BMP280;61664;48.112;11.662;2023-02-26T06:13:39;94858.09;;;1.94
34310;BMP280;61664;48.112;11.662;2023-02-26T06:16:06;94858.41;;;1.96
34310;BMP280;61664;48.112;11.662;2023-02-26T06:18:33;94874.28;;;2.12
34310;BMP280;61664;48.112;11.662;2023-02-26T06:21:01;94866.44;;;2.09
34310;BMP280;61664;48.112;11.662;2023-02-26T06:23:28;94878.19;;;2.24
34310;BMP280;61664;48.112;11.662;2023-02-26T06:25:54;94874.72;;;2.27
34310;BMP280;61664;48.112;11.662;2023-02-26T06:28:21;94866.16;;;2.23
34310;BMP280;61664;48.112;11.662;2023-02-26T06:30:52;94881.28;;;2.35
34310;BMP280;61664;48.112;11.662;2023-02-26T06:33:19;94871.00;;;2.24
34310;BMP280;61664;48.112;11.662;2023-02-26T06:35:46;94887.72;;;2.34
34310;BMP280;61664;48.112;11.662;2023-02-26T06:38:14;94895.63;;;2.34
34310;BMP280;61664;48.112;11.662;2023-02-26T06:40:41;94891.19;;;2.31
34310;BMP280;61664;48.112;11.662;2023-02-26T06:43:08;94896.53;;;2.27
34310;BMP280;61664;48.112;11.662;2023-02-26T06:45:35;94892.34;;;2.30
34310;BMP280;61664;48.112;11.662;2023-02-26T06:48:02;94905.69;;;2.39
34310;BMP280;61664;48.112;11.662;2023-02-26T06:50:29;94901.56;;;2.38
34310;BMP280;61664;48.112;11.662;2023-02-26T06:52:57;94904.13;;;2.42
34310;BMP280;61664;48.112;11.662;2023-02-26T06:55:24;94898.91;;;2.38
34310;BMP280;61664;48.112;11.662;2023-02-26T06:57:54;94906.41;;;2.40
34310;BMP280;61664;48.112;11.662;2023-02-26T07:00:22;94924.66;;;2.50
34310;BMP280;61664;48.112;11.662;2023-02-26T07:02:51;94913.13;;;2.44
34310;BMP280;61664;48.112;11.662;2023-02-26T07:05:18;94936.38;;;2.65
34310;BMP280;61664;48.112;11.662;2023-02-26T07:07:45;94941.81;;;2.75
34310;BMP280;61664;48.112;11.662;2023-02-26T07:10:12;94922.69;;;2.71
34310;BMP280;61664;48.112;11.662;2023-02-26T07:12:39;94932.28;;;2.81
34310;BMP280;61664;48.112;11.662;2023-02-26T07:15:07;94951.78;;;3.00
34310;BMP280;61664;48.112;11.662;2023-02-26T07:17:34;94936.69;;;3.00
34310;BMP280;61664;48.112;11.662;2023-02-26T07:20:01;94930.94;;;3.05
34310;BMP280;61664;48.112;11.662;2023-02-26T07:22:32;94946.19;;;3.14
34310;BMP280;61664;48.112;11.662;2023-02-26T07:24:59;94941.34;;;3.12
34310;BMP280;61664;48.112;11.662;2023-02-26T07:27:26;94950.22;;;3.18
34310;BMP280;61664;48.112;11.662;2023-02-26T07:29:55;94962.81;;;3.27
34310;BMP280;61664;48.112;11.662;2023-02-26T07:32:22;94968.03;;;3.31
34310;BMP280;61664;48.112;11.662;2023-02-26T07:34:49;94967.84;;;3.38
34310;BMP280;61664;48.112;11.662;2023-02-26T07:37:17;94957.97;;;3.42
34310;BMP280;61664;48.112;11.662;2023-02-26T07:39:44;94956.81;;;3.43
34310;BMP280;61664;48.112;11.662;2023-02-26T07:42:11;94943.13;;;3.32
34310;BMP280;61664;48.112;11.662;2023-02-26T07:44:38;94950.84;;;3.39
34310;BMP280;61664;48.112;11.662;2023-02-26T07:47:05;94951.69;;;3.36
34310;BMP280;61664;48.112;11.662;2023-02-26T07:49:32;94966.13;;;3.31
34310;BMP280;61664;48.112;11.662;2023-02-26T07:52:00;94964.50;;;3.21
34310;BMP280;61664;48.112;11.662;2023-02-26T07:54:27;94961.19;;;3.17
34310;BMP280;61664;48.112;11.662;2023-02-26T07:56:54;94987.59;;;3.33
34310;BMP280;61664;48.112;11.662;2023-02-26T07:59:21;94984.09;;;3.36
34310;BMP280;61664;48.112;11.662;2023-02-26T08:01:48;94979.88;;;3.39
34310;BMP280;61664;48.112;11.662;2023-02-26T08:04:15;94983.44;;;3.48
34310;BMP280;61664;48.112;11.662;2023-02-26T08:06:42;94992.16;;;3.62
34310;BMP280;61664;48.112;11.662;2023-02-26T08:09:09;94998.84;;;3.66
34310;BMP280;61664;48.112;11.662;2023-02-26T08:11:36;94979.34;;;3.60
34310;BMP280;61664;48.112;11.662;2023-02-26T08:14:06;94978.84;;;3.65
34310;BMP280;61664;48.112;11.662;2023-02-26T08:16:33;95017.47;;;3.75
34310;BMP280;61664;48.112;11.662;2023-02-26T08:19:00;95009.31;;;3.70
34310;BMP280;61664;48.112;11.662;2023-02-26T08:21:27;95027.28;;;3.75
34310;BMP280;61664;48.112;11.662;2023-02-26T08:23:54;95029.50;;;3.76
34310;BMP280;61664;48.112;11.662;2023-02-26T08:26:21;95015.97;;;3.74
34310;BMP280;61664;48.112;11.662;2023-02-26T08:28:48;95020.75;;;3.79
34310;BMP280;61664;48.112;11.662;2023-02-26T08:31:15;95015.81;;;3.81
34310;BMP280;61664;48.112;11.662;2023-02-26T08:33:42;95011.75;;;3.93
34310;BMP280;61664;48.112;11.662;2023-02-26T08:36:10;95029.00;;;4.10
34310;BMP280;61664;48.112;11.662;2023-02-26T08:38:37;95021.00;;;4.14
34310;BMP280;61664;48.112;11.662;2023-02-26T08:41:05;95013.97;;;4.07
34310;BMP280;61664;48.112;11.662;2023-02-26T08:43:32;95030.59;;;4.21
34310;BMP280;61664;48.112;11.662;2023-02-26T08:45:59;95038.63;;;4.17
34310;BMP280;61664;48.112;11.662;2023-02-26T08:48:26;95043.44;;;4.22
34310;BMP280;61664;48.112;11.662;2023-02-26T08:50:53;95052.75;;;4.27
34310;BMP280;61664;48.112;11.662;2023-02-26T08:53:20;95033.59;;;4.23
34310;BMP280;61664;48.112;11.662;2023-02-26T08:55:50;95043.22;;;4.17
34310;BMP280;61664;48.112;11.662;2023-02-26T08:58:18;95043.63;;;4.15
34310;BMP280;61664;48.112;11.662;2023-02-26T09:00:46;95058.13;;;4.23
34310;BMP280;61664;48.112;11.662;2023-02-26T09:03:13;95059.19;;;4.26
34310;BMP280;61664;48.112;11.662;2023-02-26T09:05:40;95056.28;;;4.20
34310;BMP280;61664;48.112;11.662;2023-02-26T09:08:08;95066.63;;;4.31
34310;BMP280;61664;48.112;11.662;2023-02-26T09:10:37;95075.69;;;4.30
34310;BMP280;61664;48.112;11.662;2023-02-26T09:13:07;95079.59;;;4.25
34310;BMP280;61664;48.112;11.662;2023-02-26T09:15:34;95073.41;;;4.32
34310;BMP280;61664;48.112;11.662;2023-02-26T09:18:01;95075.63;;;4.33
34310;BMP280;61664;48.112;11.662;2023-02-26T09:20:28;95044.22;;;4.06
34310;BMP280;61664;48.112;11.662;2023-02-26T09:22:55;95077.44;;;4.20
34310;BMP280;61664;48.112;11.662;2023-02-26T09:25:22;95083.91;;;4.19
34310;BMP280;61664;48.112;11.662;2023-02-26T09:27:49;95089.88;;;4.23
34310;BMP280;61664;48.112;11.662;2023-02-26T09:30:16;95093.66;;;4.22
34310;BMP280;61664;48.112;11.662;2023-02-26T09:32:43;95095.31;;;4.45
34310;BMP280;61664;48.112;11.662;2023-02-26T09:35:10;95093.00;;;4.60
34310;BMP280;61664;48.112;11.662;2023-02-26T09:37:37;95095.78;;;4.69
34310;BMP280;61664;48.112;11.662;2023-02-26T09:40:06;95101.97;;;4.91
34310;BMP280;61664;48.112;11.662;2023-02-26T09:42:56;95111.56;;;5.11
34310;BMP280;61664;48.112;11.662;2023-02-26T09:45:32;95098.06;;;5.21
34310;BMP280;61664;48.112;11.662;2023-02-26T09:48:05;95075.34;;;5.20
34310;BMP280;61664;48.112;11.662;2023-02-26T09:50:50;95107.25;;;5.42
34310;BMP280;61664;48.112;11.662;2023-02-26T09:53:27;95109.91;;;5.42
34310;BMP280;61664;48.112;11.662;2023-02-26T09:56:18;95119.09;;;5.37
34310;BMP280;61664;48.112;11.662;2023-02-26T09:58:45;95121.13;;;5.33
34310;BMP280;61664;48.112;11.662;2023-02-26T10:01:29;95124.19;;;5.19
34310;BMP280;61664;48.112;11.662;2023-02-26T10:04:55;95109.69;;;5.11
34310;BMP280;61664;48.112;11.662;2023-02-26T10:07:59;95122.81;;;5.15
34310;BMP280;61664;48.112;11.662;2023-02-26T10:10:40;95130.09;;;5.11
34310;BMP280;61664;48.112;11.662;2023-02-26T10:13:41;95119.22;;;4.96
34310;BMP280;61664;48.112;11.662;2023-02-26T10:16:43;95094.22;;;4.84
34310;BMP280;61664;48.112;11.662;2023-02-26T10:19:24;95113.31;;;5.04
34310;BMP280;61664;48.112;11.662;2023-02-26T10:22:23;95119.72;;;5.29
34310;BMP280;61664;48.112;11.662;2023-02-26T10:25:01;95101.53;;;5.31
34310;BMP280;61664;48.112;11.662;2023-02-26T10:30:23;95117.84;;;5.77
34310;BMP280;61664;48.112;11.662;2023-02-26T10:33:12;95112.78;;;5.82
34310;BMP280;61664;48.112;11.662;2023-02-26T10:35:52;95123.34;;;5.95
34310;BMP280;61664;48.112;11.662;2023-02-26T10:38:30;95122.16;;;5.96
34310;BMP280;61664;48.112;11.662;2023-02-26T10:41:03;95122.28;;;5.92
34310;BMP280;61664;48.112;11.662;2023-02-26T10:43:51;95106.22;;;5.74
34310;BMP280;61664;48.112;11.662;2023-02-26T10:49:50;95117.47;;;5.65
34310;BMP280;61664;48.112;11.662;2023-02-26T10:52:27;95100.13;;;5.52
34310;BMP280;61664;48.112;11.662;2023-02-26T10:57:46;95092.63;;;5.37
34310;BMP280;61664;48.112;11.662;2023-02-26T11:00:19;95096.84;;;5.35
34310;BMP280;61664;48.112;11.662;2023-02-26T11:02:50;95091.34;;;5.42
34310;BMP280;61664;48.112;11.662;2023-02-26T11:05:26;95090.28;;;5.52
34310;BMP280;61664;48.112;11.662;2023-02-26T11:08:14;95088.00;;;5.63
34310;BMP280;61664;48.112;11.662;2023-02-26T11:10:55;95086.94;;;5.74
34310;BMP280;61664;48.112;11.662;2023-02-26T11:13:26;95080.69;;;5.67
34310;BMP280;61664;48.112;11.662;2023-02-26T11:16:00;95075.00;;;5.56
34310;BMP280;61664;48.112;11.662;2023-02-26T11:18:52;95067.91;;;5.41
34310;BMP280;61664;48.112;11.662;2023-02-26T11:21:34;95084.53;;;5.54
34310;BMP280;61664;48.112;11.662;2023-02-26T11:24:12;95084.84;;;5.56
34310;BMP280;61664;48.112;11.662;2023-02-26T11:26:46;95085.34;;;5.63
34310;BMP280;61664;48.112;11.662;2023-02-26T11:29:18;95104.91;;;5.79
34310;BMP280;61664;48.112;11.662;2023-02-26T11:32:05;95116.56;;;5.94
34310;BMP280;61664;48.112;11.662;2023-02-26T11:34:33;95110.59;;;5.90
34310;BMP280;61664;48.112;11.662;2023-02-26T11:37:04;95111.78;;;5.89
34310;BMP280;61664;48.112;11.662;2023-02-26T11:39:35;95132.38;;;5.85
34310;BMP280;61664;48.112;11.662;2023-02-26T11:42:04;95117.69;;;5.71
34310;BMP280;61664;48.112;11.662;2023-02-26T11:44:42;95121.41;;;5.74
34310;BMP280;61664;48.112;11.662;2023-02-26T11:47:18;95125.59;;;5.84
34310;BMP280;61664;48.112;11.662;2023-02-26T11:50:09;95139.25;;;5.95
34310;BMP280;61664;48.112;11.662;2023-02-26T11:52:43;95128.31;;;5.93
34310;BMP280;61664;48.112;11.662;2023-02-26T11:55:31;95138.13;;;6.05
34310;BMP280;61664;48.112;11.662;2023-02-26T11:57:58;95130.59;;;6.16
34310;BMP280;61664;48.112;11.662;2023-02-26T12:00:38;95137.28;;;6.43
34310;BMP280;61664;48.112;11.662;2023-02-26T12:03:15;95125.44;;;6.66
34310;BMP280;61664;48.112;11.662;2023-02-26T12:05:42;95134.53;;;6.86
34310;BMP280;61664;48.112;11.662;2023-02-26T12:08:30;95141.09;;;6.94
34310;BMP280;61664;48.112;11.662;2023-02-26T12:11:49;95142.75;;;7.01
34310;BMP280;61664;48.112;11.662;2023-02-26T12:14:53;95133.69;;;6.99
34310;BMP280;61664;48.112;11.662;2023-02-26T12:26:34;95153.22;;;7.05
34310;BMP280;61664;48.112;11.662;2023-02-26T12:41:00;95141.47;;;7.15
34310;BMP280;61664;48.112;11.662;2023-02-26T12:43:48;95140.91;;;7.29
34310;BMP280;61664;48.112;11.662;2023-02-26T12:52:58;95116.06;;;7.81
34310;BMP280;61664;48.112;11.662;2023-02-26T12:58:43;95113.69;;;7.65
34310;BMP280;61664;48.112;11.662;2023-02-26T13:01:24;95123.00;;;7.79
34310;BMP280;61664;48.112;11.662;2023-02-26T13:07:51;95097.13;;;7.61
34310;BMP280;61664;48.112;11.662;2023-02-26T13:16:33;95102.59;;;8.03
34310;BMP280;61664;48.112;11.662;2023-02-26T13:21:58;95106.13;;;8.18
34310;BMP280;61664;48.112;11.662;2023-02-26T13:24:35;95119.13;;;8.35
34310;BMP280;61664;48.112;11.662;2023-02-26T13:27:04;95126.66;;;8.36
34310;BMP280;61664;48.112;11.662;2023-02-26T13:32:33;95124.69;;;8.55
34310;BMP280;61664;48.112;11.662;2023-02-26T13:35:27;95127.53;;;8.51
34310;BMP280;61664;48.112;11.662;2023-02-26T13:37:59;95111.44;;;8.28
34310;BMP280;61664;48.112;11.662;2023-02-26T13:41:16;95134.06;;;8.05
34310;BMP280;61664;48.112;11.662;2023-02-26T13:44:30;95122.63;;;7.31
34310;BMP280;61664;48.112;11.662;2023-02-26T13:56:20;95131.13;;;6.11
34310;BMP280;61664;48.112;11.662;2023-02-26T14:02:15;95138.00;;;6.43
34310;BMP280;61664;48.112;11.662;2023-02-26T14:04:56;95145.88;;;6.56
34310;BMP280;61664;48.112;11.662;2023-02-26T14:07:47;95151.75;;;6.51
34310;BMP280;61664;48.112;11.662;2023-02-26T14:10:31;95155.50;;;6.41
34310;BMP280;61664;48.112;11.662;2023-02-26T14:13:20;95151.38;;;6.40
34310;BMP280;61664;48.112;11.662;2023-02-26T14:16:20;95133.06;;;6.32
34310;BMP280;61664;48.112;11.662;2023-02-26T14:22:12;95151.72;;;6.42
34310;BMP280;61664;48.112;11.662;2023-02-26T14:25:05;95149.88;;;6.39
34310;BMP280;61664;48.112;11.662;2023-02-26T14:27:41;95147.88;;;6.43
34310;BMP280;61664;48.112;11.662;2023-02-26T14:35:32;95150.38;;;6.68
34310;BMP280;61664;48.112;11.662;2023-02-26T14:38:15;95171.25;;;7.10
34310;BMP280;61664;48.112;11.662;2023-02-26T14:40:56;95181.94;;;7.28
34310;BMP280;61664;48.112;11.662;2023-02-26T14:43:35;95166.31;;;6.99
34310;BMP280;61664;48.112;11.662;2023-02-26T14:46:04;95198.78;;;6.94
34310;BMP280;61664;48.112;11.662;2023-02-26T14:48:33;95197.72;;;6.70
34310;BMP280;61664;48.112;11.662;2023-02-26T14:54:14;95193.19;;;6.14
34310;BMP280;61664;48.112;11.662;2023-02-26T14:57:22;95199.59;;;5.91
34310;BMP280;61664;48.112;11.662;2023-02-26T15:00:08;95197.28;;;5.67
34310;BMP280;61664;48.112;11.662;2023-02-26T15:02:55;95211.91;;;5.59
34310;BMP280;61664;48.112;11.662;2023-02-26T15:12:03;95192.13;;;5.26
34310;BMP280;61664;48.112;11.662;2023-02-26T15:23:40;95192.53;;;5.50
34310;BMP280;61664;48.112;11.662;2023-02-26T15:26:18;95187.94;;;5.88
34310;BMP280;61664;48.112;11.662;2023-02-26T15:28:46;95198.72;;;6.63
34310;BMP280;61664;48.112;11.662;2023-02-26T15:31:18;95194.84;;;7.48
34310;BMP280;61664;48.112;11.662;2023-02-26T15:33:49;95216.84;;;8.07
34310;BMP280;61664;48.112;11.662;2023-02-26T15:36:18;95221.44;;;8.06
34310;BMP280;61664;48.112;11.662;2023-02-26T15:38:59;95215.34;;;7.78
34310;BMP280;61664;48.112;11.662;2023-02-26T15:41:30;95233.88;;;7.60
34310;BMP280;61664;48.112;11.662;2023-02-26T15:44:08;95231.25;;;7.29
34310;BMP280;61664;48.112;11.662;2023-02-26T15:46:45;95219.00;;;7.01
34310;BMP280;61664;48.112;11.662;2023-02-26T15:49:36;95220.56;;;6.89
34310;BMP280;61664;48.112;11.662;2023-02-26T15:52:07;95221.81;;;6.75
34310;BMP280;61664;48.112;11.662;2023-02-26T15:54:48;95210.47;;;6.53
34310;BMP280;61664;48.112;11.662;2023-02-26T15:57:17;95218.13;;;6.51
34310;BMP280;61664;48.112;11.662;2023-02-26T15:59:50;95231.19;;;6.45
34310;BMP280;61664;48.112;11.662;2023-02-26T16:02:25;95217.75;;;6.27
34310;BMP280;61664;48.112;11.662;2023-02-26T16:04:52;95226.59;;;6.24
34310;BMP280;61664;48.112;11.662;2023-02-26T16:07:19;95210.28;;;6.00
34310;BMP280;61664;48.112;11.662;2023-02-26T16:09:50;95238.63;;;6.03
34310;BMP280;61664;48.112;11.662;2023-02-26T16:12:35;95238.31;;;5.88
34310;BMP280;61664;48.112;11.662;2023-02-26T16:15:12;95248.41;;;5.68
34310;BMP280;61664;48.112;11.662;2023-02-26T16:17:43;95249.91;;;5.44
34310;BMP280;61664;48.112;11.662;2023-02-26T16:20:17;95249.03;;;5.34
34310;BMP280;61664;48.112;11.662;2023-02-26T16:23:35;95264.91;;;5.34
34310;BMP280;61664;48.112;11.662;2023-02-26T16:26:04;95269.78;;;5.35
34310;BMP280;61664;48.112;11.662;2023-02-26T16:31:19;95281.41;;;5.13
34310;BMP280;61664;48.112;11.662;2023-02-26T16:33:56;95281.69;;;5.02
34310;BMP280;61664;48.112;11.662;2023-02-26T16:36:36;95281.63;;;4.89
34310;BMP280;61664;48.112;11.662;2023-02-26T16:41:38;95280.47;;;4.61
34310;BMP280;61664;48.112;11.662;2023-02-26T16:47:00;95281.56;;;4.47
34310;BMP280;61664;48.112;11.662;2023-02-26T16:49:34;95280.75;;;4.34
34310;BMP280;61664;48.112;11.662;2023-02-26T16:52:03;95294.59;;;4.38
34310;BMP280;61664;48.112;11.662;2023-02-26T16:54:38;95300.75;;;4.35
34310;BMP280;61664;48.112;11.662;2023-02-26T16:57:14;95300.75;;;4.35
34310;BMP280;61664;48.112;11.662;2023-02-26T16:59:51;95305.41;;;4.31
34310;BMP280;61664;48.112;11.662;2023-02-26T17:02:26;95316.03;;;4.28
34310;BMP280;61664;48.112;11.662;2023-02-26T17:05:00;95309.41;;;4.20
34310;BMP280;61664;48.112;11.662;2023-02-26T17:07:35;95301.31;;;4.10